Time;durP1;ratioP1;P1;durP2;ratioP2;P2;SDS_P1;SDS_P2;PMS_P1;PMS_P2;Temp;Humidity;BMP_temperature;BMP_pressure;BME280_temperature;BME280_humidity;BME280_pressure;Samples;Min_cycle;Max_cycle;Signal;HPM_P1;HPM_P2
2021/08/20 00:00:11;;;;;;;;;;;16.60;99.90;;;;;;5039659;28;19905;-80
2021/08/20 00:02:37;;;;;;;;;;;16.60;99.90;;;;;;5039505;28;19905;-80
2021/08/20 00:05:03;;;;;;;;;;;16.60;99.90;;;;;;5039719;28;20019;-80
2021/08/20 00:07:29;;;;;;;;;;;16.70;99.90;;;;;;5056256;28;19905;-80
2021/08/20 00:09:55;;;;;;;;;;;16.60;99.90;;;;;;5058390;28;19928;-81
2021/08/20 00:12:20;;;;;;;;;;;16.60;99.90;;;;;;5041252;28;19916;-81
2021/08/20 00:14:46;;;;;;;;;;;16.50;99.90;;;;;;5040753;28;19905;-80
2021/08/20 00:17:12;;;;;;;;;;;16.50;99.90;;;;;;5039678;28;20274;-80
2021/08/20 00:19:38;;;;;;;;;;;16.50;99.90;;;;;;5037790;28;19916;-80
2021/08/20 00:22:04;;;;;;;;;;;16.60;99.90;;;;;;5054274;28;19944;-80
2021/08/20 00:24:29;;;;;;;;;;;16.60;99.90;;;;;;5054814;28;20003;-80
2021/08/20 00:26:55;;;;;;;;;;;16.60;99.90;;;;;;5054743;28;19956;-80
2021/08/20 00:29:20;;;;;;;;;;;16.60;99.90;;;;;;5053512;28;19985;-80
2021/08/20 00:31:46;;;;;;;;;;;16.60;99.90;;;;;;5053969;28;19905;-80
2021/08/20 00:34:11;;;;;;;;;;;16.60;99.90;;;;;;5053131;28;20320;-79
2021/08/20 00:36:37;;;;;;;;;;;16.70;99.90;;;;;;5038602;28;19912;-80
2021/08/20 00:39:02;;;;;;;;;;;16.70;99.90;;;;;;5039827;28;19940;-80
2021/08/20 00:41:28;;;;;;;;;;;16.70;99.90;;;;;;5038403;28;19909;-80
2021/08/20 00:43:54;;;;;;;;;;;16.70;99.90;;;;;;5054877;28;19909;-80
2021/08/20 00:46:19;;;;;;;;;;;16.80;99.90;;;;;;5054657;28;20254;-80
2021/08/20 00:48:45;;;;;;;;;;;16.80;99.90;;;;;;5036717;28;19909;-80
2021/08/20 00:51:17;;;;;;;;;;;16.90;99.90;;;;;;5053536;28;19909;-80
2021/08/20 00:53:44;;;;;;;;;;;16.90;99.90;;;;;;5054991;28;19905;-80
2021/08/20 00:56:09;;;;;;;;;;;16.80;99.90;;;;;;5055313;28;20004;-80
2021/08/20 00:58:35;;;;;;;;;;;16.80;99.90;;;;;;5054766;28;19940;-80
2021/08/20 01:01:01;;;;;;;;;;;16.70;99.90;;;;;;5053939;28;19905;-80
2021/08/20 01:03:27;;;;;;;;;;;16.80;99.90;;;;;;5036708;28;19905;-80
2021/08/20 01:05:54;;;;;;;;;;;16.80;99.90;;;;;;5053957;28;19909;-80
2021/08/20 01:08:38;;;;;;;;;;;16.80;99.90;;;;;;5037865;28;19905;-80
2021/08/20 01:11:05;;;;;;;;;;;16.80;99.90;;;;;;5054550;28;19909;-80
2021/08/20 01:13:35;;;;;;;;;;;16.70;99.90;;;;;;5053684;28;19916;-80
2021/08/20 01:16:01;;;;;;;;;;;16.80;99.90;;;;;;5054743;28;19932;-80
2021/08/20 01:18:29;;;;;;;;;;;16.80;99.90;;;;;;5054519;28;19913;-80
2021/08/20 01:20:56;;;;;;;;;;;16.80;99.90;;;;;;5053538;28;19909;-80
2021/08/20 01:23:26;;;;;;;;;;;16.90;99.90;;;;;;5038380;28;19976;-80
2021/08/20 01:25:51;;;;;;;;;;;16.90;99.90;;;;;;5053376;28;19956;-80
2021/08/20 01:28:17;;;;;;;;;;;16.90;99.90;;;;;;5053406;28;19928;-80
2021/08/20 01:30:43;;;;;;;;;;;16.90;99.90;;;;;;5036700;28;19913;-80
2021/08/20 01:33:08;;;;;;;;;;;16.90;99.90;;;;;;5053402;28;20047;-80
2021/08/20 01:35:34;;;;;;;;;;;16.90;99.90;;;;;;5053711;28;20394;-80
2021/08/20 01:38:00;;;;;;;;;;;16.80;99.90;;;;;;5054703;28;19909;-80
2021/08/20 01:40:26;;;;;;;;;;;16.80;99.90;;;;;;5039580;28;19932;-80
2021/08/20 01:42:51;;;;;;;;;;;16.80;99.90;;;;;;5039248;28;19912;-80
2021/08/20 01:45:17;;;;;;;;;;;16.70;99.90;;;;;;5037561;28;20302;-80
2021/08/20 01:47:43;;;;;;;;;;;16.70;99.90;;;;;;5038107;28;19905;-80
2021/08/20 01:50:09;;;;;;;;;;;16.60;99.90;;;;;;5055276;28;20397;-80
2021/08/20 01:52:35;;;;;;;;;;;16.60;99.90;;;;;;5040740;28;19936;-80
2021/08/20 01:55:02;;;;;;;;;;;16.60;99.90;;;;;;5055723;28;19909;-81
2021/08/20 01:57:27;;;;;;;;;;;16.60;99.90;;;;;;5066733;28;19911;-80
2021/08/20 01:59:53;;;;;;;;;;;16.60;99.90;;;;;;5050914;28;20340;-80
2021/08/20 02:02:18;;;;;;;;;;;16.60;99.90;;;;;;5050348;28;19970;-80
2021/08/20 02:04:44;;;;;;;;;;;16.60;99.90;;;;;;5033945;28;19905;-80
2021/08/20 02:07:09;;;;;;;;;;;16.60;99.90;;;;;;5034870;28;20400;-80
2021/08/20 02:09:35;;;;;;;;;;;16.60;99.90;;;;;;5050691;28;19906;-80
2021/08/20 02:12:00;;;;;;;;;;;16.60;99.90;;;;;;5051948;28;20247;-80
2021/08/20 02:14:26;;;;;;;;;;;16.60;99.90;;;;;;5051831;28;19905;-80
2021/08/20 02:16:51;;;;;;;;;;;16.60;99.90;;;;;;5051386;28;20017;-80
2021/08/20 02:19:17;;;;;;;;;;;16.60;99.90;;;;;;5051931;28;20427;-80
2021/08/20 02:21:42;;;;;;;;;;;16.70;99.90;;;;;;5037316;28;19916;-80
2021/08/20 02:24:08;;;;;;;;;;;16.70;99.90;;;;;;5052759;28;19944;-80
2021/08/20 02:26:33;;;;;;;;;;;16.70;99.90;;;;;;5052672;28;19913;-80
2021/08/20 02:28:59;;;;;;;;;;;16.60;99.90;;;;;;5052084;28;19916;-80
2021/08/20 02:31:24;;;;;;;;;;;16.70;99.90;;;;;;5036874;28;19912;-80
2021/08/20 02:33:50;;;;;;;;;;;16.70;99.90;;;;;;5051655;28;19912;-80
2021/08/20 02:36:15;;;;;;;;;;;16.70;99.90;;;;;;5036273;28;19909;-80
2021/08/20 02:38:41;;;;;;;;;;;16.70;99.90;;;;;;5051529;28;19951;-80
2021/08/20 02:41:07;;;;;;;;;;;16.70;99.90;;;;;;5051465;28;19973;-81
2021/08/20 02:43:33;;;;;;;;;;;16.70;99.90;;;;;;5052683;28;19905;-80
2021/08/20 02:45:59;;;;;;;;;;;16.60;99.90;;;;;;5051200;28;19916;-80
2021/08/20 02:48:25;;;;;;;;;;;16.60;99.90;;;;;;5052652;28;19909;-80
2021/08/20 02:50:50;;;;;;;;;;;16.60;99.90;;;;;;5051849;28;19941;-80
2021/08/20 02:53:16;;;;;;;;;;;16.50;99.90;;;;;;5051187;28;19912;-80
2021/08/20 02:55:43;;;;;;;;;;;16.50;99.90;;;;;;5051952;28;19940;-80
2021/08/20 02:58:08;;;;;;;;;;;16.60;99.90;;;;;;5052090;28;20251;-81
2021/08/20 03:00:34;;;;;;;;;;;16.60;99.90;;;;;;5050359;28;19916;-81
2021/08/20 03:03:00;;;;;;;;;;;16.50;99.90;;;;;;5050421;28;19909;-81
2021/08/20 03:05:25;;;;;;;;;;;16.50;99.90;;;;;;5050177;28;19909;-81
2021/08/20 03:07:51;;;;;;;;;;;16.50;99.90;;;;;;5049790;28;19916;-81
2021/08/20 03:10:17;;;;;;;;;;;16.50;99.90;;;;;;5037286;28;19905;-81
2021/08/20 03:12:42;;;;;;;;;;;16.50;99.90;;;;;;5050011;28;20460;-81
2021/08/20 03:15:08;;;;;;;;;;;16.50;99.90;;;;;;5051634;28;19992;-82
2021/08/20 03:17:34;;;;;;;;;;;16.40;99.90;;;;;;5053975;28;20404;-81
2021/08/20 03:19:59;;;;;;;;;;;16.40;99.90;;;;;;5054914;28;19980;-81
2021/08/20 03:22:25;;;;;;;;;;;16.50;99.90;;;;;;5055778;28;20270;-81
2021/08/20 03:24:50;;;;;;;;;;;16.40;99.90;;;;;;5057025;28;19972;-81
2021/08/20 03:27:16;;;;;;;;;;;16.40;99.90;;;;;;5043102;28;19905;-82
2021/08/20 03:29:42;;;;;;;;;;;16.40;99.90;;;;;;5041776;28;19948;-81
2021/08/20 03:32:07;;;;;;;;;;;16.40;99.90;;;;;;5040580;28;20416;-81
2021/08/20 03:34:33;;;;;;;;;;;16.40;99.90;;;;;;5055330;28;20265;-81
2021/08/20 03:36:58;;;;;;;;;;;16.40;99.90;;;;;;5056544;28;20294;-81
2021/08/20 03:39:24;;;;;;;;;;;16.40;99.90;;;;;;5038555;28;19948;-81
2021/08/20 03:41:49;;;;;;;;;;;16.50;99.90;;;;;;5039617;28;19909;-81
2021/08/20 03:44:15;;;;;;;;;;;16.40;99.90;;;;;;5055933;28;19905;-81
2021/08/20 03:46:41;;;;;;;;;;;16.50;99.90;;;;;;5038782;28;19909;-81
2021/08/20 03:49:06;;;;;;;;;;;16.40;99.90;;;;;;5040516;28;19931;-81
2021/08/20 03:51:32;;;;;;;;;;;16.40;99.90;;;;;;5040735;28;19959;-81
2021/08/20 03:53:58;;;;;;;;;;;16.50;99.90;;;;;;5057545;28;19947;-81
2021/08/20 03:56:23;;;;;;;;;;;16.50;99.90;;;;;;5056414;28;19905;-81
2021/08/20 03:58:49;;;;;;;;;;;16.50;99.90;;;;;;5055869;28;19909;-81
2021/08/20 04:01:15;;;;;;;;;;;16.50;99.90;;;;;;5040986;28;19911;-81
2021/08/20 04:03:40;;;;;;;;;;;16.50;99.90;;;;;;5055211;28;19909;-81
2021/08/20 04:06:09;;;;;;;;;;;16.60;99.90;;;;;;5039220;28;19959;-81
2021/08/20 04:08:35;;;;;;;;;;;16.50;99.90;;;;;;5056308;28;19912;-81
2021/08/20 04:11:00;;;;;;;;;;;16.60;99.90;;;;;;5054830;28;19913;-80
2021/08/20 04:13:26;;;;;;;;;;;16.60;99.90;;;;;;5055430;28;20408;-81
2021/08/20 04:15:51;;;;;;;;;;;16.70;99.90;;;;;;5056201;28;19955;-81
2021/08/20 04:18:17;;;;;;;;;;;16.60;99.90;;;;;;5055768;28;19972;-81
2021/08/20 04:20:42;;;;;;;;;;;16.60;99.90;;;;;;5039840;28;19909;-81
2021/08/20 04:23:08;;;;;;;;;;;16.60;99.90;;;;;;5056487;28;19955;-81
2021/08/20 04:25:34;;;;;;;;;;;16.60;99.90;;;;;;5055753;28;19913;-81
2021/08/20 04:28:00;;;;;;;;;;;16.60;99.90;;;;;;5056331;28;19959;-81
2021/08/20 04:30:29;;;;;;;;;;;16.60;99.90;;;;;;5056759;28;19949;-81
2021/08/20 04:32:55;;;;;;;;;;;16.60;99.90;;;;;;5057353;28;19959;-81
2021/08/20 04:35:21;;;;;;;;;;;16.50;99.90;;;;;;5057591;28;19984;-81
2021/08/20 04:37:46;;;;;;;;;;;16.50;99.90;;;;;;5057363;28;19979;-81
2021/08/20 04:40:12;;;;;;;;;;;16.50;99.90;;;;;;5041452;28;20259;-81
2021/08/20 04:42:38;;;;;;;;;;;16.50;99.90;;;;;;5040661;28;19905;-81
2021/08/20 04:45:04;;;;;;;;;;;16.50;99.90;;;;;;5056736;28;19967;-81
2021/08/20 04:47:30;;;;;;;;;;;16.50;99.90;;;;;;5056019;28;19912;-81
2021/08/20 04:49:55;;;;;;;;;;;16.50;99.90;;;;;;5041489;28;19905;-81
2021/08/20 04:52:21;;;;;;;;;;;16.50;99.90;;;;;;5068174;28;19913;-80
2021/08/20 04:54:47;;;;;;;;;;;16.40;99.90;;;;;;5054015;28;19940;-80
2021/08/20 04:57:12;;;;;;;;;;;16.40;99.90;;;;;;5054723;28;19905;-80
2021/08/20 04:59:38;;;;;;;;;;;16.40;99.90;;;;;;5054731;28;19905;-80
2021/08/20 05:02:03;;;;;;;;;;;16.40;99.90;;;;;;5055749;28;19916;-81
2021/08/20 05:04:31;;;;;;;;;;;16.50;99.90;;;;;;5040713;28;19992;-80
2021/08/20 05:06:57;;;;;;;;;;;16.40;99.90;;;;;;5055966;28;19913;-80
2021/08/20 05:09:22;;;;;;;;;;;16.50;99.90;;;;;;5040302;28;19912;-81
2021/08/20 05:11:48;;;;;;;;;;;16.50;99.90;;;;;;5055916;28;19960;-81
2021/08/20 05:14:13;;;;;;;;;;;16.40;99.90;;;;;;5055916;28;19912;-81
2021/08/20 05:16:39;;;;;;;;;;;16.40;99.90;;;;;;5055128;28;19908;-81
2021/08/20 05:19:04;;;;;;;;;;;16.50;99.90;;;;;;5054657;28;19912;-81
2021/08/20 05:21:30;;;;;;;;;;;16.50;99.90;;;;;;5038403;28;19913;-81
2021/08/20 05:23:55;;;;;;;;;;;16.50;99.90;;;;;;5056368;28;19912;-81
2021/08/20 05:26:21;;;;;;;;;;;16.50;99.90;;;;;;5038464;28;20007;-81
2021/08/20 05:28:46;;;;;;;;;;;16.50;99.90;;;;;;5055288;28;19911;-81
2021/08/20 05:31:12;;;;;;;;;;;16.50;99.90;;;;;;5057570;28;19905;-81
2021/08/20 05:33:37;;;;;;;;;;;16.50;99.90;;;;;;5039112;28;20285;-81
2021/08/20 05:36:03;;;;;;;;;;;16.60;99.90;;;;;;5054402;28;19905;-81
2021/08/20 05:38:29;;;;;;;;;;;16.60;99.90;;;;;;5053462;28;19905;-80
2021/08/20 05:40:54;;;;;;;;;;;16.70;99.90;;;;;;5053795;28;19905;-80
2021/08/20 05:43:20;;;;;;;;;;;16.70;99.90;;;;;;5054567;28;20117;-81
2021/08/20 05:45:45;;;;;;;;;;;16.70;99.90;;;;;;5055430;28;19949;-81
2021/08/20 05:48:11;;;;;;;;;;;16.70;99.90;;;;;;5055283;28;19909;-81
2021/08/20 05:50:37;;;;;;;;;;;16.80;99.90;;;;;;5055059;28;19912;-81
2021/08/20 05:53:03;;;;;;;;;;;16.80;99.90;;;;;;5055478;28;19908;-80
2021/08/20 05:55:30;;;;;;;;;;;16.80;99.90;;;;;;5055200;28;20003;-81
2021/08/20 05:57:56;;;;;;;;;;;16.90;99.90;;;;;;5054902;28;20320;-81
2021/08/20 06:00:22;;;;;;;;;;;16.90;99.90;;;;;;5054596;28;20181;-81
2021/08/20 06:02:48;;;;;;;;;;;16.90;99.90;;;;;;5054326;28;20058;-80
2021/08/20 06:05:13;;;;;;;;;;;16.90;99.90;;;;;;5055909;28;19991;-80
2021/08/20 06:07:38;;;;;;;;;;;16.90;99.90;;;;;;5058956;28;19905;-80
2021/08/20 06:10:06;;;;;;;;;;;16.90;99.90;;;;;;5043618;28;19905;-80
2021/08/20 06:12:31;;;;;;;;;;;16.90;99.90;;;;;;5059024;28;19905;-80
2021/08/20 06:14:57;;;;;;;;;;;17.00;99.90;;;;;;5043054;28;19912;-80
2021/08/20 06:17:23;;;;;;;;;;;17.00;99.90;;;;;;5058162;28;20011;-80
2021/08/20 06:19:48;;;;;;;;;;;17.10;99.90;;;;;;5042797;28;19913;-80
2021/08/20 06:22:14;;;;;;;;;;;17.20;99.90;;;;;;5042575;28;19936;-80
2021/08/20 06:24:39;;;;;;;;;;;17.20;99.90;;;;;;5041849;28;19960;-80
2021/08/20 06:27:05;;;;;;;;;;;17.30;99.90;;;;;;5041591;28;19917;-80
2021/08/20 06:29:30;;;;;;;;;;;17.30;99.90;;;;;;5057817;28;20408;-80
2021/08/20 06:31:56;;;;;;;;;;;17.30;99.90;;;;;;5058708;28;19909;-80
2021/08/20 06:34:22;;;;;;;;;;;17.30;99.90;;;;;;5057595;28;19912;-80
2021/08/20 06:36:47;;;;;;;;;;;17.20;99.90;;;;;;5042644;28;19973;-80
2021/08/20 06:39:13;;;;;;;;;;;17.20;99.90;;;;;;5058126;28;19924;-80
2021/08/20 06:41:39;;;;;;;;;;;17.20;99.90;;;;;;5039424;28;19909;-80
2021/08/20 06:44:04;;;;;;;;;;;17.20;99.90;;;;;;5052097;28;19909;-81
2021/08/20 06:46:30;;;;;;;;;;;17.20;99.90;;;;;;5057952;28;19920;-80
2021/08/20 06:48:55;;;;;;;;;;;17.30;99.90;;;;;;5054206;28;19917;-80
2021/08/20 06:51:21;;;;;;;;;;;17.30;99.90;;;;;;5062094;28;19920;-80
2021/08/20 06:53:46;;;;;;;;;;;17.40;99.90;;;;;;5045854;28;19909;-80
2021/08/20 06:56:12;;;;;;;;;;;17.40;99.90;;;;;;5045721;28;19928;-80
2021/08/20 06:58:37;;;;;;;;;;;17.40;99.90;;;;;;5043996;28;19944;-80
2021/08/20 07:01:03;;;;;;;;;;;17.30;99.90;;;;;;5044619;28;20388;-80
2021/08/20 07:03:28;;;;;;;;;;;17.40;99.90;;;;;;5041976;28;19905;-80
2021/08/20 07:05:54;;;;;;;;;;;17.40;99.90;;;;;;5041046;28;20358;-80
2021/08/20 07:08:19;;;;;;;;;;;17.40;99.90;;;;;;5040985;28;20305;-80
2021/08/20 07:10:45;;;;;;;;;;;17.60;99.90;;;;;;5040766;28;19911;-80
2021/08/20 07:13:10;;;;;;;;;;;17.70;99.90;;;;;;5057580;28;19909;-80
2021/08/20 07:15:36;;;;;;;;;;;17.80;99.90;;;;;;5040578;28;20301;-80
2021/08/20 07:18:01;;;;;;;;;;;17.90;99.90;;;;;;5040435;28;19913;-80
2021/08/20 07:20:27;;;;;;;;;;;17.90;99.90;;;;;;5040476;28;19931;-80
2021/08/20 07:22:52;;;;;;;;;;;18.00;99.90;;;;;;5040656;28;19905;-80
2021/08/20 07:25:18;;;;;;;;;;;18.00;99.90;;;;;;5041432;28;19956;-80
2021/08/20 07:27:44;;;;;;;;;;;18.10;99.90;;;;;;5040185;28;20118;-80
2021/08/20 07:30:09;;;;;;;;;;;18.10;99.90;;;;;;5039691;28;19976;-80
2021/08/20 07:32:35;;;;;;;;;;;18.10;99.90;;;;;;5040334;28;19959;-80
2021/08/20 07:35:00;;;;;;;;;;;17.90;99.90;;;;;;5040213;28;19908;-80
2021/08/20 07:37:26;;;;;;;;;;;18.00;99.90;;;;;;5040121;28;19928;-80
2021/08/20 07:39:52;;;;;;;;;;;18.00;99.90;;;;;;5039978;28;19928;-80
2021/08/20 07:42:20;;;;;;;;;;;18.10;99.90;;;;;;5039955;28;19916;-80
2021/08/20 07:44:46;;;;;;;;;;;18.10;99.90;;;;;;5044502;28;19916;-80
2021/08/20 07:47:12;;;;;;;;;;;18.00;99.90;;;;;;5049556;28;19909;-80
2021/08/20 07:49:37;;;;;;;;;;;18.00;99.90;;;;;;5038059;28;20269;-80
2021/08/20 07:52:03;;;;;;;;;;;18.10;99.90;;;;;;5038477;28;19913;-80
2021/08/20 07:54:29;;;;;;;;;;;18.10;99.90;;;;;;5054051;28;19955;-80
2021/08/20 07:56:54;;;;;;;;;;;18.30;99.90;;;;;;5037487;28;20358;-80
2021/08/20 07:59:20;;;;;;;;;;;18.60;99.90;;;;;;5037316;28;20252;-80
2021/08/20 08:01:45;;;;;;;;;;;18.70;99.90;;;;;;5036597;28;19912;-80
2021/08/20 08:04:11;;;;;;;;;;;18.70;99.90;;;;;;5038926;28;20361;-80
2021/08/20 08:06:38;;;;;;;;;;;18.80;99.90;;;;;;5037149;28;19909;-79
2021/08/20 08:09:03;;;;;;;;;;;18.90;99.90;;;;;;5036840;28;19967;-79
2021/08/20 08:11:31;;;;;;;;;;;19.10;99.90;;;;;;5037021;28;19928;-79
2021/08/20 08:14:03;;;;;;;;;;;19.10;99.90;;;;;;5037309;28;20370;-79
2021/08/20 08:16:29;;;;;;;;;;;19.20;99.90;;;;;;5038899;28;19905;-80
2021/08/20 08:18:55;;;;;;;;;;;19.10;99.90;;;;;;5037866;28;19913;-80
2021/08/20 08:21:20;;;;;;;;;;;19.00;99.90;;;;;;5037086;28;19916;-80
2021/08/20 08:23:46;;;;;;;;;;;19.10;99.90;;;;;;5037880;28;19917;-80
2021/08/20 08:26:12;;;;;;;;;;;19.20;99.90;;;;;;5055004;28;19928;-79
2021/08/20 08:28:37;;;;;;;;;;;19.30;99.90;;;;;;5040674;28;19905;-80
2021/08/20 08:31:03;;;;;;;;;;;19.50;99.90;;;;;;5040862;28;19905;-79
2021/08/20 08:33:28;;;;;;;;;;;19.70;99.90;;;;;;5039343;28;19911;-78
2021/08/20 08:35:54;;;;;;;;;;;19.80;99.90;;;;;;5055529;28;19909;-79
2021/08/20 08:38:19;;;;;;;;;;;19.90;99.90;;;;;;5055634;28;19905;-79
2021/08/20 08:40:46;;;;;;;;;;;20.20;99.90;;;;;;5041150;28;19909;-79
2021/08/20 08:43:12;;;;;;;;;;;20.20;99.90;;;;;;5056349;28;19948;-79
2021/08/20 08:45:38;;;;;;;;;;;20.20;99.90;;;;;;5055703;28;19909;-79
2021/08/20 08:48:05;;;;;;;;;;;20.20;99.90;;;;;;5055259;28;19905;-79
2021/08/20 08:50:31;;;;;;;;;;;20.30;99.90;;;;;;5055412;28;20324;-79
2021/08/20 08:52:56;;;;;;;;;;;20.70;99.90;;;;;;5054881;28;20217;-79
2021/08/20 08:55:22;;;;;;;;;;;20.80;99.90;;;;;;5055298;28;19916;-79
2021/08/20 08:57:47;;;;;;;;;;;21.40;99.90;;;;;;5037943;28;19905;-79
2021/08/20 09:00:13;;;;;;;;;;;22.10;99.90;;;;;;5055180;28;19928;-79
2021/08/20 09:02:39;;;;;;;;;;;22.90;99.90;;;;;;5053956;28;19963;-79
2021/08/20 09:05:06;;;;;;;;;;;23.40;99.90;;;;;;5038401;28;19905;-79
2021/08/20 09:07:34;;;;;;;;;;;23.00;99.90;;;;;;5037883;28;19964;-79
2021/08/20 09:10:18;;;;;;;;;;;22.60;99.90;;;;;;5038408;28;19915;-80
2021/08/20 09:12:50;;;;;;;;;;;22.20;99.90;;;;;;5053411;28;19927;-79
2021/08/20 09:15:19;;;;;;;;;;;21.60;99.90;;;;;;5054032;28;20043;-79
2021/08/20 09:17:52;;;;;;;;;;;21.90;99.90;;;;;;5039427;28;20266;-79
2021/08/20 09:20:22;;;;;;;;;;;22.30;99.90;;;;;;5052844;28;19905;-80
2021/08/20 09:22:49;;;;;;;;;;;22.20;99.90;;;;;;5047412;28;19968;-78
2021/08/20 09:25:28;;;;;;;;;;;22.00;99.90;;;;;;5035493;28;20421;-79
2021/08/20 09:28:07;;;;;;;;;;;22.40;99.90;;;;;;5045805;28;19998;-79
2021/08/20 09:30:32;;;;;;;;;;;23.10;99.90;;;;;;5047987;28;19951;-79
2021/08/20 09:32:58;;;;;;;;;;;24.70;99.90;;;;;;5041521;28;19905;-79
2021/08/20 09:35:23;;;;;;;;;;;24.80;99.90;;;;;;5037919;28;19952;-79
2021/08/20 09:37:49;;;;;;;;;;;24.50;99.90;;;;;;5037595;28;19996;-79
2021/08/20 09:40:17;;;;;;;;;;;25.10;99.90;;;;;;5055340;28;19963;-79
2021/08/20 09:42:43;;;;;;;;;;;25.60;99.90;;;;;;5037649;28;19905;-80
2021/08/20 09:45:16;;;;;;;;;;;25.50;99.90;;;;;;5038417;28;19967;-79
2021/08/20 09:47:49;;;;;;;;;;;24.70;99.90;;;;;;5054251;28;20291;-79
2021/08/20 09:50:15;;;;;;;;;;;24.50;99.90;;;;;;5039573;28;20285;-79
2021/08/20 09:52:40;;;;;;;;;;;25.00;99.90;;;;;;5039348;28;19908;-79
2021/08/20 09:55:06;;;;;;;;;;;24.90;99.90;;;;;;5054917;28;20007;-79
2021/08/20 09:57:32;;;;;;;;;;;25.20;99.90;;;;;;5038000;28;19909;-79
2021/08/20 09:59:57;;;;;;;;;;;25.20;99.90;;;;;;5054801;28;19968;-79
2021/08/20 10:02:25;;;;;;;;;;;24.60;99.90;;;;;;5054840;28;19909;-79
2021/08/20 10:04:53;;;;;;;;;;;24.30;99.90;;;;;;5054895;28;20015;-79
2021/08/20 10:07:18;;;;;;;;;;;24.40;99.90;;;;;;5037862;28;20348;-80
2021/08/20 10:09:45;;;;;;;;;;;23.90;99.90;;;;;;5037751;28;20000;-80
2021/08/20 10:12:10;;;;;;;;;;;23.60;99.90;;;;;;5036914;28;19928;-80
2021/08/20 10:14:36;;;;;;;;;;;23.20;99.90;;;;;;5053799;28;19909;-79
2021/08/20 10:17:02;;;;;;;;;;;22.70;99.90;;;;;;5054178;28;20012;-79
2021/08/20 10:19:28;;;;;;;;;;;23.00;99.90;;;;;;5054036;28;19909;-79
2021/08/20 10:21:53;;;;;;;;;;;23.50;99.90;;;;;;5054206;28;19944;-79
2021/08/20 10:24:19;;;;;;;;;;;24.40;99.90;;;;;;5053471;28;19912;-79
2021/08/20 10:26:55;;;;;;;;;;;23.80;99.90;;;;;;5053834;28;19948;-79
2021/08/20 10:29:22;;;;;;;;;;;22.90;99.90;;;;;;5036923;28;19920;-79
2021/08/20 10:31:48;;;;;;;;;;;22.20;99.90;;;;;;5053958;28;19909;-79
2021/08/20 10:34:29;;;;;;;;;;;21.80;99.90;;;;;;5054413;28;19905;-79
2021/08/20 10:37:02;;;;;;;;;;;21.60;99.90;;;;;;5053365;28;19916;-79
2021/08/20 10:39:28;;;;;;;;;;;21.80;99.90;;;;;;5054949;28;19948;-79
2021/08/20 10:42:03;;;;;;;;;;;22.00;99.90;;;;;;5057225;28;20493;-79
2021/08/20 10:44:33;;;;;;;;;;;22.30;99.90;;;;;;5034059;28;19967;-79
2021/08/20 10:46:59;;;;;;;;;;;22.70;99.90;;;;;;5048773;28;20263;-80
2021/08/20 10:49:25;;;;;;;;;;;23.40;99.90;;;;;;5049186;28;19905;-79
2021/08/20 10:51:51;;;;;;;;;;;24.20;99.90;;;;;;5048888;28;20000;-79
2021/08/20 10:54:16;;;;;;;;;;;25.30;99.90;;;;;;5049064;28;19905;-79
2021/08/20 10:56:42;;;;;;;;;;;26.40;99.90;;;;;;5048807;28;20373;-80
2021/08/20 10:59:07;;;;;;;;;;;26.00;99.90;;;;;;5049822;28;19928;-79
2021/08/20 11:01:33;;;;;;;;;;;26.00;99.90;;;;;;5048551;28;19947;-79
2021/08/20 11:03:59;;;;;;;;;;;25.50;99.90;;;;;;5033212;28;19909;-79
2021/08/20 11:06:44;;;;;;;;;;;25.70;99.90;;;;;;5050929;28;19920;-79
2021/08/20 11:09:25;;;;;;;;;;;25.40;99.90;;;;;;5033498;28;19916;-79
2021/08/20 11:11:52;;;;;;;;;;;25.80;99.90;;;;;;5034183;28;19960;-79
2021/08/20 11:14:21;;;;;;;;;;;25.30;99.90;;;;;;5041903;28;20000;-79
2021/08/20 11:16:46;;;;;;;;;;;26.10;99.90;;;;;;5041302;28;19909;-79
2021/08/20 11:19:32;;;;;;;;;;;26.80;99.90;;;;;;5041524;28;20054;-79
2021/08/20 11:22:11;;;;;;;;;;;26.50;99.90;;;;;;5029871;28;20011;-79
2021/08/20 11:24:36;;;;;;;;;;;27.00;99.90;;;;;;5030482;28;20705;-79
2021/08/20 11:27:15;;;;;;;;;;;27.70;99.90;;;;;;5035600;28;19996;-79
2021/08/20 11:29:44;;;;;;;;;;;27.10;99.90;;;;;;5049158;28;20539;-79
2021/08/20 11:32:10;;;;;;;;;;;26.40;99.90;;;;;;5048121;28;19980;-79
2021/08/20 11:34:49;;;;;;;;;;;25.70;99.90;;;;;;5047976;28;19909;-79
2021/08/20 11:37:15;;;;;;;;;;;25.90;99.90;;;;;;5046522;28;19909;-79
2021/08/20 11:39:40;;;;;;;;;;;27.10;99.90;;;;;;5039026;28;19990;-79
2021/08/20 11:42:09;;;;;;;;;;;27.90;99.90;;;;;;5052470;28;19917;-79
2021/08/20 11:44:37;;;;;;;;;;;28.90;99.50;;;;;;5035373;28;20346;-79
2021/08/20 11:47:03;;;;;;;;;;;28.80;97.90;;;;;;5036107;28;19913;-79
2021/08/20 11:49:28;;;;;;;;;;;28.00;98.90;;;;;;5053535;28;19912;-79
2021/08/20 11:52:04;;;;;;;;;;;27.10;99.90;;;;;;5035717;28;19912;-80
2021/08/20 11:54:34;;;;;;;;;;;26.60;99.90;;;;;;5036169;28;19920;-80
2021/08/20 11:57:00;;;;;;;;;;;26.40;99.90;;;;;;5054480;28;20270;-79
2021/08/20 11:59:25;;;;;;;;;;;25.80;99.90;;;;;;5037683;28;20006;-79
2021/08/20 12:01:54;;;;;;;;;;;25.70;99.90;;;;;;5037630;28;19919;-79
2021/08/20 12:04:21;;;;;;;;;;;25.60;99.90;;;;;;5054127;28;20008;-79
2021/08/20 12:06:47;;;;;;;;;;;25.80;99.90;;;;;;5053535;28;19932;-79
2021/08/20 12:09:13;;;;;;;;;;;25.60;99.90;;;;;;5038505;28;20009;-79
2021/08/20 12:11:43;;;;;;;;;;;25.80;99.90;;;;;;5038651;28;19928;-80
2021/08/20 12:14:16;;;;;;;;;;;25.80;99.90;;;;;;5053353;28;20482;-80
2021/08/20 12:16:49;;;;;;;;;;;25.80;99.90;;;;;;5039869;28;19943;-80
2021/08/20 12:19:21;;;;;;;;;;;25.80;99.90;;;;;;5035582;28;20420;-80
2021/08/20 12:21:48;;;;;;;;;;;25.60;99.90;;;;;;5053762;28;19917;-80
2021/08/20 12:24:15;;;;;;;;;;;25.40;99.90;;;;;;5051314;28;19913;-80
2021/08/20 12:26:41;;;;;;;;;;;25.00;99.90;;;;;;5044152;28;20336;-79
2021/08/20 12:29:14;;;;;;;;;;;24.80;99.90;;;;;;5036146;28;19988;-80
2021/08/20 12:31:39;;;;;;;;;;;24.90;99.90;;;;;;5050980;28;19931;-80
2021/08/20 12:34:06;;;;;;;;;;;25.50;99.90;;;;;;5037150;28;20011;-79
2021/08/20 12:36:31;;;;;;;;;;;26.10;99.90;;;;;;5037336;28;19905;-79
2021/08/20 12:39:10;;;;;;;;;;;27.10;99.90;;;;;;5033254;28;20430;-79
2021/08/20 12:41:37;;;;;;;;;;;27.40;99.90;;;;;;5052301;28;19909;-79
2021/08/20 12:44:04;;;;;;;;;;;26.90;99.90;;;;;;5034332;28;19940;-80
2021/08/20 12:46:48;;;;;;;;;;;26.70;99.90;;;;;;5035024;28;19913;-80
2021/08/20 12:49:16;;;;;;;;;;;26.50;99.90;;;;;;5051826;28;19913;-80
2021/08/20 12:51:51;;;;;;;;;;;26.20;99.90;;;;;;5034728;28;19923;-80
2021/08/20 12:54:21;;;;;;;;;;;26.40;99.90;;;;;;5036628;28;20402;-80
2021/08/20 12:56:48;;;;;;;;;;;26.30;99.90;;;;;;5035962;28;20277;-80
2021/08/20 12:59:17;;;;;;;;;;;26.00;99.90;;;;;;5043285;28;19920;-80
2021/08/20 13:01:42;;;;;;;;;;;26.00;99.90;;;;;;5031990;28;19909;-80
2021/08/20 13:04:08;;;;;;;;;;;26.30;99.90;;;;;;5036096;28;21117;-80
2021/08/20 13:06:34;;;;;;;;;;;26.30;99.90;;;;;;5035045;28;19982;-80
2021/08/20 13:09:00;;;;;;;;;;;26.10;99.90;;;;;;5035542;28;19964;-80
2021/08/20 13:11:25;;;;;;;;;;;26.00;99.90;;;;;;5036724;28;19913;-80
2021/08/20 13:13:51;;;;;;;;;;;26.10;99.90;;;;;;5052023;28;19921;-80
2021/08/20 13:16:17;;;;;;;;;;;26.00;99.90;;;;;;5036730;28;19968;-80
2021/08/20 13:18:43;;;;;;;;;;;26.00;99.90;;;;;;5051835;28;19913;-80
2021/08/20 13:21:08;;;;;;;;;;;25.90;99.90;;;;;;5052121;28;19913;-80
2021/08/20 13:23:34;;;;;;;;;;;25.70;99.90;;;;;;5048485;28;19953;-80
2021/08/20 13:26:06;;;;;;;;;;;25.50;99.90;;;;;;5051123;28;19997;-79
2021/08/20 13:28:33;;;;;;;;;;;25.40;99.90;;;;;;5023450;28;20031;-79
2021/08/20 13:30:58;;;;;;;;;;;25.20;99.90;;;;;;5034423;28;20350;-79
2021/08/20 13:33:24;;;;;;;;;;;24.90;99.90;;;;;;5033705;28;19909;-78
2021/08/20 13:35:49;;;;;;;;;;;24.90;99.90;;;;;;5051816;28;19962;-79
2021/08/20 13:38:15;;;;;;;;;;;24.80;99.90;;;;;;5029407;28;20564;-79
2021/08/20 13:40:41;;;;;;;;;;;24.90;99.90;;;;;;5029785;28;19920;-79
2021/08/20 13:43:13;;;;;;;;;;;25.00;99.90;;;;;;5026342;28;20338;-79
2021/08/20 13:45:40;;;;;;;;;;;25.20;99.90;;;;;;5040254;28;19909;-79
2021/08/20 13:48:06;;;;;;;;;;;25.20;99.90;;;;;;5023649;28;19924;-80
2021/08/20 13:50:32;;;;;;;;;;;25.20;99.90;;;;;;5035069;28;19913;-80
2021/08/20 13:52:57;;;;;;;;;;;25.40;99.90;;;;;;5031160;28;20315;-80
2021/08/20 13:55:23;;;;;;;;;;;25.60;99.90;;;;;;5041913;28;19966;-80
2021/08/20 13:57:48;;;;;;;;;;;25.60;99.90;;;;;;5034833;28;20459;-80
2021/08/20 14:00:14;;;;;;;;;;;25.70;99.90;;;;;;5032422;28;19905;-79
2021/08/20 14:02:40;;;;;;;;;;;25.70;99.90;;;;;;5026212;28;19916;-79
2021/08/20 14:05:06;;;;;;;;;;;25.70;99.90;;;;;;5047926;28;19909;-79
2021/08/20 14:07:31;;;;;;;;;;;25.40;99.90;;;;;;5052036;28;19913;-79
2021/08/20 14:09:57;;;;;;;;;;;25.50;99.90;;;;;;5046409;28;19976;-79
2021/08/20 14:12:23;;;;;;;;;;;25.40;99.90;;;;;;5034659;28;19911;-79